createdAt,value
2023-02-09T00:09:06.270Z,1
2023-02-09T00:19:06.190Z,1
2023-02-09T00:29:06.115Z,1
2023-02-09T00:39:06.087Z,1
2023-02-09T00:49:05.986Z,1
2023-02-09T00:59:05.903Z,1
2023-02-09T01:09:05.872Z,1
2023-02-09T01:19:05.809Z,1
2023-02-09T01:29:05.709Z,1
2023-02-09T01:39:05.641Z,1
2023-02-09T01:49:05.575Z,1
2023-02-09T01:59:05.513Z,1
2023-02-09T02:09:05.428Z,1
2023-02-09T02:19:05.345Z,1
2023-02-09T02:29:05.418Z,1
2023-02-09T02:39:05.240Z,1
2023-02-09T02:49:05.122Z,1
2023-02-09T02:59:05.195Z,1
2023-02-09T03:09:04.997Z,1
2023-02-09T03:19:04.922Z,1
2023-02-09T03:29:04.855Z,1
2023-02-09T03:39:04.850Z,1
2023-02-09T03:49:04.703Z,1
2023-02-09T03:59:04.625Z,1
2023-02-09T04:09:04.593Z,1
2023-02-09T04:19:04.589Z,1
2023-02-09T04:29:04.434Z,1
2023-02-09T04:39:04.446Z,1
2023-02-09T04:49:04.310Z,1
2023-02-09T04:59:04.197Z,1
2023-02-09T05:09:04.148Z,1
2023-02-09T05:19:04.091Z,1
2023-02-09T05:29:04.021Z,1
2023-02-09T05:39:03.918Z,8
2023-02-09T05:49:03.867Z,1
2023-02-09T05:59:04.772Z,1
2023-02-09T06:09:03.723Z,4
2023-02-09T06:19:03.691Z,1
2023-02-09T06:29:03.631Z,9
2023-02-09T06:39:03.591Z,6
2023-02-09T06:49:03.433Z,2
2023-02-09T06:59:03.490Z,14
2023-02-09T07:09:03.347Z,19
2023-02-09T07:19:03.227Z,13
2023-02-09T07:29:03.148Z,3
2023-02-09T07:39:03.049Z,6
2023-02-09T07:49:02.988Z,10
2023-02-09T07:59:03.022Z,13
2023-02-09T08:09:02.870Z,12
2023-02-09T08:19:03.005Z,10
2023-02-09T08:29:02.714Z,15
2023-02-09T08:39:02.660Z,19
2023-02-09T08:49:02.594Z,11
2023-02-09T08:59:02.549Z,16
2023-02-09T09:09:02.476Z,13
2023-02-09T09:19:02.372Z,14
2023-02-09T09:29:02.351Z,25
2023-02-09T09:39:02.297Z,29
2023-02-09T09:49:02.160Z,19
2023-02-09T09:59:02.087Z,26
2023-02-09T10:09:02.076Z,23
2023-02-09T10:19:02.095Z,25
2023-02-09T10:29:01.903Z,28
2023-02-09T10:39:01.880Z,32
2023-02-09T10:49:01.760Z,26
2023-02-09T10:59:01.650Z,29
2023-02-09T11:09:01.619Z,38
2023-02-09T11:19:01.543Z,43
2023-02-09T11:29:01.484Z,49
2023-02-09T11:39:01.421Z,54
2023-02-09T11:49:01.338Z,59
2023-02-09T11:59:01.334Z,66
2023-02-09T12:09:01.166Z,75
2023-02-09T12:19:01.107Z,81
2023-02-09T12:29:01.035Z,87
2023-02-09T12:39:04.877Z,90
2023-02-09T12:49:01.020Z,91
2023-02-09T12:59:00.882Z,99
2023-02-09T13:09:00.768Z,99
2023-02-09T13:19:00.730Z,99
2023-02-09T13:29:08.603Z,99
2023-02-09T13:39:00.581Z,99
2023-02-09T13:49:02.722Z,99
2023-02-09T13:59:00.446Z,99
2023-02-09T14:09:00.330Z,99
2023-02-09T14:19:00.271Z,99
2023-02-09T14:29:00.233Z,77
2023-02-09T14:39:00.215Z,55
2023-02-09T14:49:00.208Z,38
2023-02-09T14:59:00.032Z,35
2023-02-09T15:08:59.911Z,31
2023-02-09T15:18:59.861Z,48
2023-02-09T15:28:59.805Z,38
2023-02-09T15:38:59.707Z,36
2023-02-09T15:48:59.739Z,34
2023-02-09T15:58:59.573Z,34
2023-02-09T16:08:59.522Z,32
2023-02-09T16:18:59.455Z,43
2023-02-09T16:28:59.481Z,55
2023-02-09T16:38:59.298Z,64
2023-02-09T16:48:59.319Z,68
2023-02-09T16:58:59.184Z,77
2023-02-09T17:08:59.079Z,66
2023-02-09T17:18:59.009Z,71
2023-02-09T17:28:58.961Z,78
2023-02-09T17:38:58.922Z,80
2023-02-09T17:48:58.822Z,83
2023-02-09T17:58:58.758Z,91
2023-02-09T18:08:58.685Z,96
2023-02-09T18:18:58.642Z,97
2023-02-09T18:28:58.507Z,99
2023-02-09T18:38:58.482Z,99
2023-02-09T18:48:58.380Z,99
2023-02-09T18:58:58.374Z,99
2023-02-09T19:08:58.268Z,99
2023-02-09T19:18:58.194Z,99
2023-02-09T19:28:58.113Z,99
2023-02-09T19:38:58.071Z,87
2023-02-09T19:48:57.986Z,49
2023-02-09T19:58:57.933Z,50
2023-02-09T20:08:57.945Z,50
2023-02-09T20:18:57.834Z,14
2023-02-09T20:28:57.705Z,16
2023-02-09T20:38:57.621Z,24
2023-02-09T20:48:57.568Z,12
2023-02-09T20:58:57.489Z,13
2023-02-09T21:08:57.447Z,1
2023-02-09T21:18:57.330Z,6
2023-02-09T21:28:57.435Z,15
2023-02-09T21:38:57.213Z,6
2023-02-09T21:48:57.146Z,1
2023-02-09T21:58:57.065Z,1
2023-02-09T22:08:56.990Z,1
2023-02-09T22:18:57.042Z,1
2023-02-09T22:28:56.848Z,1
2023-02-09T22:38:56.778Z,1
2023-02-09T22:48:56.700Z,1
2023-02-09T22:58:56.638Z,1
2023-02-09T23:08:56.551Z,1
2023-02-09T23:18:56.606Z,1
2023-02-09T23:28:57.202Z,1
2023-02-09T23:38:56.381Z,1
2023-02-09T23:48:56.366Z,1
2023-02-09T23:58:56.215Z,1
